createdAt,value
2019-02-12T00:01:39.850Z,59.26
2019-02-12T00:04:11.463Z,59.33
2019-02-12T00:06:43.539Z,59.35
2019-02-12T00:09:15.376Z,59.36
2019-02-12T00:11:47.044Z,59.38
2019-02-12T00:14:18.643Z,59.42
2019-02-12T00:16:50.970Z,59.45
2019-02-12T00:19:22.610Z,59.46
2019-02-12T00:21:54.283Z,59.45
2019-02-12T00:24:26.144Z,59.41
2019-02-12T00:26:57.787Z,59.39
2019-02-12T00:29:29.482Z,59.37
2019-02-12T00:32:01.848Z,59.35
2019-02-12T00:34:33.695Z,59.30
2019-02-12T00:37:05.383Z,59.30
2019-02-12T00:39:38.558Z,59.29
2019-02-12T00:42:10.323Z,59.23
2019-02-12T00:44:42.278Z,59.22
2019-02-12T00:47:13.917Z,59.28
2019-02-12T00:49:46.396Z,59.29
2019-02-12T00:52:18.004Z,59.30
2019-02-12T00:54:49.961Z,59.33
2019-02-12T00:57:21.515Z,59.34
2019-02-12T00:59:53.160Z,59.29
2019-02-12T01:02:25.067Z,59.27
2019-02-12T01:04:57.306Z,59.25
2019-02-12T01:07:29.013Z,59.22
2019-02-12T01:10:00.664Z,59.25
2019-02-12T01:12:32.405Z,59.28
2019-02-12T01:15:04.502Z,59.31
2019-02-12T01:17:36.126Z,59.30
2019-02-12T01:20:11.311Z,59.30
2019-02-12T01:22:42.892Z,59.30
2019-02-12T01:25:14.567Z,59.28
2019-02-12T01:27:46.203Z,59.24
2019-02-12T01:30:18.453Z,59.24
2019-02-12T01:32:50.237Z,59.19
2019-02-12T01:35:22.542Z,59.19
2019-02-12T01:37:55.156Z,59.23
2019-02-12T01:40:28.317Z,59.26
2019-02-12T01:43:00.005Z,59.32
2019-02-12T01:45:34.016Z,59.35
2019-02-12T01:48:08.339Z,59.41
2019-02-12T01:50:45.409Z,59.44
2019-02-12T01:53:17.272Z,59.46
2019-02-12T01:55:48.914Z,59.45
2019-02-12T01:58:21.488Z,59.43
2019-02-12T02:00:53.213Z,59.40
2019-02-12T02:03:25.270Z,59.42
2019-02-12T02:05:57.990Z,59.50
2019-02-12T02:08:33.028Z,59.55
2019-02-12T02:11:04.654Z,59.58
2019-02-12T02:13:36.437Z,59.61
2019-02-12T02:16:11.879Z,59.56
2019-02-12T02:18:43.981Z,59.55
2019-02-12T02:21:22.695Z,59.55
2019-02-12T02:23:54.724Z,59.56
2019-02-12T02:26:27.069Z,59.57
2019-02-12T02:28:59.137Z,59.54
2019-02-12T02:31:30.733Z,59.50
2019-02-12T02:34:02.595Z,59.46
2019-02-12T02:36:34.560Z,59.43
2019-02-12T02:39:07.234Z,59.47
2019-02-12T02:41:39.929Z,59.52
2019-02-12T02:44:11.859Z,59.56
2019-02-12T02:46:43.454Z,59.60
2019-02-12T02:49:15.269Z,59.64
2019-02-12T02:51:53.769Z,59.62
2019-02-12T02:54:21.039Z,59.71
2019-02-12T02:56:52.705Z,59.83
2019-02-12T02:59:25.561Z,59.89
2019-02-12T03:01:57.829Z,59.93
2019-02-12T03:04:29.451Z,59.90
2019-02-12T03:07:02.321Z,59.88
2019-02-12T03:09:34.582Z,59.86
2019-02-12T03:12:06.239Z,59.87
2019-02-12T03:14:37.838Z,59.93
2019-02-12T03:17:09.510Z,60.01
2019-02-12T03:19:42.214Z,60.07
2019-02-12T03:22:13.966Z,60.10
2019-02-12T03:24:46.177Z,60.08
2019-02-12T03:27:17.792Z,60.09
2019-02-12T03:29:49.443Z,60.12
2019-02-12T03:32:21.070Z,60.13
2019-02-12T03:34:52.928Z,60.16
2019-02-12T03:37:24.618Z,60.22
2019-02-12T03:39:56.888Z,60.27
2019-02-12T03:42:28.474Z,60.33
2019-02-12T03:45:00.354Z,60.40
2019-02-12T03:47:32.023Z,60.48
2019-02-12T03:50:03.899Z,60.56
2019-02-12T03:52:35.820Z,60.68
2019-02-12T03:55:09.302Z,60.74
2019-02-12T03:57:41.105Z,60.80
2019-02-12T04:00:14.671Z,60.80
2019-02-12T04:03:07.272Z,60.82
2019-02-12T04:05:40.317Z,60.87
2019-02-12T04:08:12.377Z,60.79
2019-02-12T04:10:44.849Z,60.79
2019-02-12T04:13:18.035Z,60.81
2019-02-12T04:15:51.196Z,60.82
2019-02-12T04:18:24.417Z,60.83
2019-02-12T04:20:57.698Z,60.81
2019-02-12T04:23:30.996Z,60.79
2019-02-12T04:26:04.796Z,60.79
2019-02-12T04:28:38.239Z,60.80
2019-02-12T04:31:09.957Z,60.81
2019-02-12T04:33:41.634Z,60.81
2019-02-12T04:36:13.240Z,60.82
2019-02-12T04:38:44.839Z,60.79
2019-02-12T04:41:16.444Z,60.77
2019-02-12T04:43:48.549Z,60.75
2019-02-12T04:46:20.289Z,60.68
2019-02-12T04:48:51.901Z,60.58
2019-02-12T04:51:23.483Z,60.53
2019-02-12T04:53:55.107Z,60.57
2019-02-12T04:56:26.922Z,60.62
2019-02-12T04:58:59.182Z,60.67
2019-02-12T05:01:31.295Z,60.71
2019-02-12T05:04:02.924Z,60.74
2019-02-12T05:06:34.532Z,60.80
2019-02-12T05:09:20.841Z,60.80
2019-02-12T05:12:04.712Z,60.81
2019-02-12T05:14:36.592Z,60.77
2019-02-12T05:17:08.285Z,60.73
2019-02-12T05:19:39.935Z,60.72
2019-02-12T05:22:11.620Z,60.74
2019-02-12T05:24:43.324Z,60.74
2019-02-12T05:27:15.027Z,60.76
2019-02-12T05:29:46.794Z,60.82
2019-02-12T05:32:18.429Z,60.89
2019-02-12T05:34:50.031Z,60.96
2019-02-12T05:37:21.658Z,61.00
2019-02-12T05:39:53.365Z,61.04
2019-02-12T05:42:26.054Z,61.07
2019-02-12T05:44:58.017Z,61.06
2019-02-12T05:47:29.645Z,61.06
2019-02-12T05:50:02.743Z,61.04
2019-02-12T05:52:34.451Z,61.00
2019-02-12T05:55:06.158Z,60.96
2019-02-12T05:57:37.838Z,60.96
2019-02-12T06:00:13.456Z,60.94
2019-02-12T06:02:45.242Z,60.89
2019-02-12T06:05:30.158Z,60.86
2019-02-12T06:08:01.964Z,60.86
2019-02-12T06:10:33.621Z,60.81
2019-02-12T06:13:05.494Z,60.79
2019-02-12T06:15:37.308Z,60.78
2019-02-12T06:18:08.914Z,60.79
2019-02-12T06:20:40.613Z,60.78
2019-02-12T06:23:12.297Z,60.77
2019-02-12T06:25:44.149Z,60.75
2019-02-12T06:28:15.757Z,60.76
2019-02-12T06:30:47.752Z,60.80
2019-02-12T06:33:21.665Z,60.82
2019-02-12T06:35:53.304Z,60.82
2019-02-12T06:38:25.087Z,60.80
2019-02-12T06:40:56.723Z,60.76
2019-02-12T06:43:28.341Z,60.76
2019-02-12T06:46:00.339Z,60.80
2019-02-12T06:48:31.959Z,60.81
2019-02-12T06:51:03.796Z,60.85
2019-02-12T06:53:35.560Z,60.91
2019-02-12T06:56:07.190Z,60.95
2019-02-12T06:58:38.804Z,60.96
2019-02-12T07:01:10.594Z,60.97
2019-02-12T07:04:03.489Z,60.99
2019-02-12T07:07:33.447Z,61.03
2019-02-12T07:10:35.061Z,61.05
2019-02-12T07:13:58.428Z,61.11
2019-02-12T07:17:17.408Z,61.15
2019-02-12T07:20:13.658Z,61.17
2019-02-12T07:23:06.314Z,61.26
2019-02-12T07:26:53.731Z,61.36
2019-02-12T07:30:32.994Z,61.34
2019-02-12T07:33:45.340Z,61.30
2019-02-12T07:37:18.842Z,61.32
2019-02-12T07:40:52.883Z,61.39
2019-02-12T07:44:24.478Z,61.39
2019-02-12T07:47:19.801Z,61.39
2019-02-12T07:50:29.458Z,61.42
2019-02-12T07:53:47.509Z,61.44
2019-02-12T07:57:05.389Z,61.47
2019-02-12T08:00:02.856Z,61.44
2019-02-12T08:03:14.760Z,61.41
2019-02-12T08:06:24.332Z,61.41
2019-02-12T08:10:04.337Z,61.41
2019-02-12T08:13:16.487Z,61.47
2019-02-12T08:16:26.185Z,61.50
2019-02-12T08:19:49.819Z,61.58
2019-02-12T08:23:28.260Z,61.61
2019-02-12T08:26:50.443Z,61.61
2019-02-12T08:30:15.350Z,61.60
2019-02-12T08:33:29.930Z,61.56
2019-02-12T08:36:53.989Z,61.52
2019-02-12T08:40:05.206Z,61.50
2019-02-12T08:43:39.290Z,61.59
2019-02-12T08:47:11.860Z,61.66
2019-02-12T08:49:58.938Z,61.76
2019-02-12T08:53:13.294Z,61.85
2019-02-12T08:56:24.948Z,62.01
2019-02-12T08:59:34.628Z,62.07
2019-02-12T09:03:06.143Z,62.08
2019-02-12T09:06:19.204Z,62.16
2019-02-12T09:09:55.932Z,62.19
2019-02-12T09:13:38.225Z,62.21
2019-02-12T09:17:21.191Z,62.18
2019-02-12T09:20:46.001Z,62.13
2019-02-12T09:24:17.423Z,62.10
2019-02-12T09:27:42.499Z,62.11
2019-02-12T09:31:23.559Z,62.02
2019-02-12T09:34:57.660Z,61.93
2019-02-12T09:38:25.185Z,61.83
2019-02-12T09:41:38.269Z,61.80
2019-02-12T09:44:52.550Z,61.82
2019-02-12T09:48:10.427Z,61.82
2019-02-12T09:51:28.618Z,61.83
2019-02-12T09:54:54.389Z,61.81
2019-02-12T09:58:22.676Z,61.86
2019-02-12T10:02:00.098Z,61.80
2019-02-12T10:05:32.346Z,61.77
2019-02-12T10:08:46.968Z,61.66
2019-02-12T10:12:14.694Z,61.48
2019-02-12T10:15:19.776Z,61.46
2019-02-12T10:18:51.207Z,61.34
2019-02-12T10:21:53.574Z,61.31
2019-02-12T10:25:11.372Z,61.27
2019-02-12T10:29:01.484Z,61.17
2019-02-12T10:31:43.507Z,61.06
2019-02-12T10:34:15.194Z,60.93
2019-02-12T10:36:46.967Z,60.79
2019-02-12T10:39:18.850Z,60.76
2019-02-12T10:41:50.739Z,60.66
2019-02-12T10:44:22.411Z,60.51
2019-02-12T10:46:57.630Z,60.33
2019-02-12T10:49:30.338Z,60.18
2019-02-12T10:52:02.033Z,60.04
2019-02-12T10:55:37.182Z,60.00
2019-02-12T10:58:09.930Z,59.92
2019-02-12T11:00:41.773Z,59.90
2019-02-12T11:03:14.079Z,59.79
2019-02-12T11:05:47.314Z,59.65
2019-02-12T11:08:18.937Z,59.51
2019-02-12T11:10:51.016Z,59.50
2019-02-12T11:13:22.751Z,59.38
2019-02-12T11:15:54.876Z,59.21
2019-02-12T11:18:26.620Z,59.03
2019-02-12T11:20:58.311Z,58.80
2019-02-12T11:23:30.118Z,58.75
2019-02-12T11:26:02.402Z,58.60
2019-02-12T11:28:34.053Z,58.45
2019-02-12T11:31:05.745Z,58.29
2019-02-12T11:33:37.936Z,58.18
2019-02-12T11:36:10.246Z,58.01
2019-02-12T11:38:42.038Z,57.96
2019-02-12T11:41:14.154Z,57.80
2019-02-12T11:43:45.829Z,57.72
2019-02-12T11:46:19.862Z,57.59
2019-02-12T11:48:51.532Z,57.53
2019-02-12T11:51:23.275Z,57.47
2019-02-12T11:53:55.012Z,57.39
2019-02-12T11:56:26.773Z,57.31
2019-02-12T11:58:58.407Z,56.89
2019-02-12T12:01:31.469Z,56.81
2019-02-12T12:04:05.365Z,56.73
2019-02-12T12:06:37.201Z,56.49
2019-02-12T12:09:09.280Z,56.32
2019-02-12T12:11:41.077Z,56.20
2019-02-12T12:14:12.909Z,56.06
2019-02-12T12:16:44.526Z,55.90
2019-02-12T12:19:17.866Z,55.67
2019-02-12T12:21:51.505Z,55.48
2019-02-12T12:24:27.274Z,55.23
2019-02-12T12:26:59.275Z,55.01
2019-02-12T12:29:31.046Z,54.87
2019-02-12T12:32:03.013Z,54.37
2019-02-12T12:34:37.603Z,54.42
2019-02-12T12:37:09.392Z,54.36
2019-02-12T12:39:41.592Z,54.28
2019-02-12T12:42:13.660Z,54.30
2019-02-12T12:44:45.336Z,54.27
2019-02-12T12:47:17.191Z,54.20
2019-02-12T12:49:49.214Z,54.09
2019-02-12T12:52:20.814Z,54.00
2019-02-12T12:54:59.736Z,53.79
2019-02-12T12:57:25.944Z,53.74
2019-02-12T12:59:57.815Z,53.63
2019-02-12T13:02:29.873Z,53.52
2019-02-12T13:05:02.723Z,53.33
2019-02-12T13:07:34.474Z,53.37
2019-02-12T13:10:08.707Z,53.34
2019-02-12T13:12:40.379Z,53.18
2019-02-12T13:15:13.411Z,53.06
2019-02-12T13:17:45.197Z,53.00
2019-02-12T13:20:17.230Z,52.88
2019-02-12T13:22:48.986Z,52.71
2019-02-12T13:25:21.064Z,52.63
2019-02-12T13:27:52.796Z,52.34
2019-02-12T13:30:24.505Z,52.28
2019-02-12T13:32:56.524Z,52.05
2019-02-12T13:35:28.592Z,52.00
2019-02-12T13:38:00.300Z,51.99
2019-02-12T13:40:32.487Z,51.92
2019-02-12T13:43:04.289Z,51.88
2019-02-12T13:45:36.376Z,51.86
2019-02-12T13:48:08.420Z,51.83
2019-02-12T13:50:40.921Z,51.80
2019-02-12T13:53:12.708Z,51.73
2019-02-12T13:55:45.502Z,51.65
2019-02-12T13:58:17.114Z,51.65
2019-02-12T14:00:48.860Z,51.58
2019-02-12T14:03:22.460Z,51.48
2019-02-12T14:05:54.464Z,51.38
2019-02-12T14:08:26.859Z,51.25
2019-02-12T14:10:58.707Z,51.24
2019-02-12T14:13:30.451Z,51.18
2019-02-12T14:16:02.171Z,51.12
2019-02-12T14:18:33.832Z,51.13
2019-02-12T14:21:05.639Z,51.09
2019-02-12T14:23:37.941Z,51.08
2019-02-12T14:26:09.751Z,51.07
2019-02-12T14:28:41.430Z,51.01
2019-02-12T14:31:13.143Z,50.89
2019-02-12T14:33:45.094Z,50.80
2019-02-12T14:36:16.863Z,50.70
2019-02-12T14:38:49.225Z,50.65
2019-02-12T14:41:20.984Z,50.63
2019-02-12T14:43:52.684Z,50.61
2019-02-12T14:46:24.412Z,50.49
2019-02-12T14:48:56.124Z,50.52
2019-02-12T14:51:28.061Z,50.54
2019-02-12T14:54:00.507Z,50.54
2019-02-12T14:56:32.346Z,50.42
2019-02-12T14:59:04.379Z,50.47
2019-02-12T15:01:36.063Z,50.51
2019-02-12T15:04:08.219Z,50.53
2019-02-12T15:06:40.027Z,50.53
2019-02-12T15:09:12.801Z,50.46
2019-02-12T15:11:44.508Z,50.44
2019-02-12T15:14:16.358Z,50.37
2019-02-12T15:16:48.039Z,50.38
2019-02-12T15:19:19.890Z,50.41
2019-02-12T15:21:51.594Z,50.42
2019-02-12T15:24:23.948Z,50.45
2019-02-12T15:26:55.620Z,50.39
2019-02-12T15:29:28.201Z,50.37
2019-02-12T15:31:59.946Z,50.26
2019-02-12T15:34:31.902Z,50.31
2019-02-12T15:37:06.557Z,50.29
2019-02-12T15:39:38.922Z,50.32
2019-02-12T15:42:10.674Z,50.29
2019-02-12T15:44:42.329Z,50.25
2019-02-12T15:47:13.956Z,50.33
2019-02-12T15:49:45.628Z,50.38
2019-02-12T15:52:17.310Z,50.40
2019-02-12T15:54:49.762Z,50.47
2019-02-12T15:57:22.636Z,50.50
2019-02-12T15:59:56.102Z,50.54
2019-02-12T16:02:28.143Z,50.56
2019-02-12T16:05:00.515Z,50.50
2019-02-12T16:07:32.375Z,50.43
2019-02-12T16:10:04.145Z,50.42
2019-02-12T16:12:36.206Z,50.40
2019-02-12T16:15:11.435Z,50.36
2019-02-12T16:17:43.178Z,50.36
2019-02-12T16:20:15.104Z,50.36
2019-02-12T16:22:48.417Z,50.32
2019-02-12T16:25:20.099Z,50.24
2019-02-12T16:27:51.816Z,50.18
2019-02-12T16:30:23.559Z,50.10
2019-02-12T16:32:55.611Z,50.03
2019-02-12T16:35:27.335Z,49.98
2019-02-12T16:37:59.178Z,49.97
2019-02-12T16:40:30.906Z,49.91
2019-02-12T16:43:02.664Z,49.87
2019-02-12T16:45:51.630Z,49.85
2019-02-12T16:48:24.538Z,49.81
2019-02-12T16:50:56.575Z,49.84
2019-02-12T16:53:28.275Z,49.79
2019-02-12T16:56:07.945Z,49.77
2019-02-12T16:58:33.373Z,49.75
2019-02-12T17:01:05.234Z,49.72
2019-02-12T17:03:37.825Z,49.71
2019-02-12T17:06:11.473Z,49.75
2019-02-12T17:08:43.192Z,49.76
2019-02-12T17:11:14.811Z,49.80
2019-02-12T17:13:46.486Z,49.83
2019-02-12T17:16:18.274Z,49.84
2019-02-12T17:18:51.004Z,49.82
2019-02-12T17:21:22.730Z,49.81
2019-02-12T17:23:54.444Z,49.83
2019-02-12T17:26:26.488Z,49.83
2019-02-12T17:28:58.163Z,49.85
2019-02-12T17:31:31.392Z,49.86
2019-02-12T17:34:03.704Z,49.92
2019-02-12T17:36:35.503Z,49.94
2019-02-12T17:39:08.428Z,49.99
2019-02-12T17:41:40.367Z,50.07
2019-02-12T17:44:12.112Z,50.13
2019-02-12T17:46:43.808Z,50.21
2019-02-12T17:49:16.140Z,50.30
2019-02-12T17:51:47.961Z,50.34
2019-02-12T17:54:21.507Z,50.37
2019-02-12T17:56:53.262Z,50.36
2019-02-12T17:59:25.547Z,50.40
2019-02-12T18:01:57.422Z,50.42
2019-02-12T18:04:31.706Z,50.43
2019-02-12T18:07:03.490Z,50.46
2019-02-12T18:09:36.393Z,50.47
2019-02-12T18:12:08.157Z,50.49
2019-02-12T18:14:39.985Z,50.54
2019-02-12T18:17:11.664Z,50.57
2019-02-12T18:19:44.139Z,50.67
2019-02-12T18:22:16.155Z,50.72
2019-02-12T18:24:48.156Z,50.77
2019-02-12T18:27:20.293Z,50.86
2019-02-12T18:29:52.280Z,50.92
2019-02-12T18:32:24.195Z,50.96
2019-02-12T18:34:56.625Z,50.99
2019-02-12T18:37:28.340Z,51.00
2019-02-12T18:40:00.268Z,50.96
2019-02-12T18:42:31.991Z,50.92
2019-02-12T18:45:04.141Z,50.89
2019-02-12T18:47:36.042Z,50.90
2019-02-12T18:50:09.481Z,50.94
2019-02-12T18:52:41.457Z,50.96
2019-02-12T18:55:14.477Z,50.96
2019-02-12T18:57:46.293Z,50.98
2019-02-12T19:00:20.638Z,50.98
2019-02-12T19:02:52.475Z,51.00
2019-02-12T19:05:25.957Z,51.01
2019-02-12T19:07:57.880Z,51.05
2019-02-12T19:10:30.209Z,51.07
2019-02-12T19:13:02.074Z,51.08
2019-02-12T19:15:34.052Z,51.10
2019-02-12T19:18:11.874Z,51.07
2019-02-12T19:20:43.668Z,51.04
2019-02-12T19:23:16.234Z,51.11
2019-02-12T19:25:48.249Z,51.24
2019-02-12T19:28:20.261Z,51.42
2019-02-12T19:30:52.376Z,51.54
2019-02-12T19:33:25.100Z,51.58
2019-02-12T19:35:56.948Z,51.59
2019-02-12T19:38:29.220Z,51.58
2019-02-12T19:41:01.279Z,51.58
2019-02-12T19:43:33.279Z,51.58
2019-02-12T19:46:06.880Z,51.56
2019-02-12T19:48:40.549Z,51.57
2019-02-12T19:51:12.385Z,51.54
2019-02-12T19:53:44.791Z,51.60
2019-02-12T19:56:16.519Z,51.72
2019-02-12T19:58:48.447Z,51.81
2019-02-12T20:01:20.298Z,51.84
2019-02-12T20:03:52.462Z,51.88
2019-02-12T20:06:24.182Z,51.88
2019-02-12T20:08:56.532Z,51.85
2019-02-12T20:11:28.388Z,51.84
2019-02-12T20:14:00.313Z,51.84
2019-02-12T20:16:32.173Z,51.88
2019-02-12T20:19:08.684Z,51.98
2019-02-12T20:21:40.478Z,52.03
2019-02-12T20:24:12.949Z,52.07
2019-02-12T20:26:44.754Z,52.09
2019-02-12T20:29:16.700Z,52.09
2019-02-12T20:31:50.292Z,52.07
2019-02-12T20:34:22.074Z,52.09
2019-02-12T20:36:54.090Z,52.15
2019-02-12T20:39:25.820Z,52.26
2019-02-12T20:41:57.987Z,52.45
2019-02-12T20:44:29.765Z,52.66
2019-02-12T20:47:01.519Z,52.80
2019-02-12T20:49:33.302Z,52.81
2019-02-12T20:52:09.116Z,52.77
2019-02-12T20:54:41.005Z,52.71
2019-02-12T20:57:15.095Z,52.67
2019-02-12T20:59:46.533Z,52.60
2019-02-12T21:02:18.511Z,52.53
2019-02-12T21:04:54.778Z,52.46
2019-02-12T21:07:26.804Z,52.40
2019-02-12T21:09:58.848Z,52.39
2019-02-12T21:12:30.907Z,52.43
2019-02-12T21:15:02.631Z,52.51
2019-02-12T21:17:34.341Z,52.62
2019-02-12T21:20:07.772Z,52.68
2019-02-12T21:22:39.710Z,52.74
2019-02-12T21:25:11.991Z,52.78
2019-02-12T21:27:44.155Z,52.78
2019-02-12T21:30:18.996Z,52.76
2019-02-12T21:32:50.695Z,52.77
2019-02-12T21:35:23.214Z,52.79
2019-02-12T21:37:55.241Z,52.82
2019-02-12T21:40:26.944Z,52.92
2019-02-12T21:42:58.966Z,52.99
2019-02-12T21:45:30.886Z,52.98
2019-02-12T21:48:02.592Z,52.96
2019-02-12T21:50:34.230Z,52.94
2019-02-12T21:53:05.916Z,52.96
2019-02-12T21:55:38.521Z,52.94
2019-02-12T21:58:11.535Z,52.98
2019-02-12T22:00:43.278Z,53.05
2019-02-12T22:03:15.917Z,53.08
2019-02-12T22:05:47.890Z,53.17
2019-02-12T22:08:20.391Z,53.28
2019-02-12T22:10:52.360Z,53.38
2019-02-12T22:13:24.400Z,53.42
2019-02-12T22:15:56.071Z,53.48
2019-02-12T22:18:28.975Z,53.57
2019-02-12T22:21:00.725Z,53.66
2019-02-12T22:23:32.357Z,53.74
2019-02-12T22:26:04.748Z,53.83
2019-02-12T22:28:36.454Z,53.90
2019-02-12T22:31:08.476Z,53.96
2019-02-12T22:33:40.118Z,53.95
2019-02-12T22:36:11.814Z,53.90
2019-02-12T22:38:43.484Z,53.88
2019-02-12T22:41:15.215Z,53.84
2019-02-12T22:43:47.107Z,53.85
2019-02-12T22:46:19.254Z,53.87
2019-02-12T22:48:50.923Z,53.87
2019-02-12T22:51:22.803Z,53.87
2019-02-12T22:53:58.544Z,53.91
2019-02-12T22:56:30.268Z,53.97
2019-02-12T22:59:01.927Z,53.94
2019-02-12T23:01:39.848Z,53.91
2019-02-12T23:04:11.505Z,53.97
2019-02-12T23:06:43.656Z,54.07
2019-02-12T23:09:19.115Z,54.17
2019-02-12T23:11:50.773Z,54.23
2019-02-12T23:14:23.104Z,54.25
2019-02-12T23:16:55.308Z,54.21
2019-02-12T23:19:27.147Z,54.19
2019-02-12T23:21:59.985Z,54.17
2019-02-12T23:24:31.793Z,54.19
2019-02-12T23:27:03.732Z,54.27
2019-02-12T23:29:35.345Z,54.37
2019-02-12T23:32:07.394Z,54.48
2019-02-12T23:34:39.011Z,54.55
2019-02-12T23:37:10.643Z,54.58
2019-02-12T23:39:42.263Z,54.62
2019-02-12T23:42:13.938Z,54.57
2019-02-12T23:44:45.548Z,54.53
2019-02-12T23:47:17.528Z,54.46
2019-02-12T23:49:49.138Z,54.41
2019-02-12T23:52:20.915Z,54.36
2019-02-12T23:54:52.513Z,54.34
2019-02-12T23:57:24.486Z,54.26
2019-02-12T23:59:56.079Z,54.24
